Time;durP1;ratioP1;P1;durP2;ratioP2;P2;SDS_P1;SDS_P2;PMS_P1;PMS_P2;Temp;Humidity;BMP_temperature;BMP_pressure;BME280_temperature;BME280_humidity;BME280_pressure;Samples;Min_cycle;Max_cycle;Signal;HPM_P1;HPM_P2
2023/01/16 00:01:51;;;;;;;2.83;1.33;;;5.80;99.90;;;;;;5071112;28;20173;-45
2023/01/16 00:04:16;;;;;;;2.30;1.02;;;5.80;99.90;;;;;;5070858;28;20594;-48
2023/01/16 00:06:42;;;;;;;4.47;1.33;;;5.70;99.90;;;;;;5071130;28;20169;-45
2023/01/16 00:09:08;;;;;;;1.58;1.00;;;5.80;99.90;;;;;;5071044;28;20243;-45
2023/01/16 00:11:33;;;;;;;4.43;1.20;;;5.80;99.90;;;;;;5071049;28;20174;-45
2023/01/16 00:13:59;;;;;;;3.63;0.80;;;5.70;99.90;;;;;;5074013;28;20205;-45
2023/01/16 00:16:26;;;;;;;3.05;0.98;;;5.80;99.90;;;;;;5074596;28;20162;-45
2023/01/16 00:18:52;;;;;;;2.70;1.13;;;5.80;99.90;;;;;;5074747;28;20185;-45
2023/01/16 00:21:19;;;;;;;4.30;0.88;;;5.70;99.90;;;;;;5074701;28;20235;-45
2023/01/16 00:23:45;;;;;;;1.63;1.17;;;5.70;99.90;;;;;;5074362;28;20232;-45
2023/01/16 00:26:11;;;;;;;3.63;1.20;;;5.70;99.90;;;;;;5074385;28;20170;-45
2023/01/16 00:28:38;;;;;;;6.72;1.10;;;5.80;99.90;;;;;;5074601;28;20511;-45
2023/01/16 00:31:06;;;;;;;3.55;1.10;;;5.80;99.90;;;;;;5074297;28;20166;-45
2023/01/16 00:33:35;;;;;;;5.53;1.63;;;5.80;99.90;;;;;;5074577;28;20229;-45
2023/01/16 00:36:01;;;;;;;0.88;0.60;;;5.80;99.90;;;;;;5074655;28;20169;-45
2023/01/16 00:38:27;;;;;;;1.10;1.00;;;5.80;99.90;;;;;;5072534;28;20180;-45
2023/01/16 00:40:52;;;;;;;2.22;0.77;;;5.80;99.90;;;;;;5073937;28;20241;-45
2023/01/16 00:43:18;;;;;;;2.53;1.00;;;5.80;99.90;;;;;;5073865;28;20225;-45
2023/01/16 00:45:44;;;;;;;3.25;1.30;;;5.80;99.90;;;;;;5074284;28;20643;-45
2023/01/16 00:48:09;;;;;;;8.65;1.08;;;5.80;99.90;;;;;;5074297;28;20166;-45
2023/01/16 00:50:35;;;;;;;1.73;1.23;;;5.80;99.90;;;;;;5073937;28;20514;-45
2023/01/16 00:53:01;;;;;;;9.45;1.92;;;5.80;99.90;;;;;;5074218;28;20210;-45
2023/01/16 00:55:26;;;;;;;6.68;1.20;;;5.80;99.90;;;;;;5074121;28;20560;-45
2023/01/16 00:57:52;;;;;;;3.15;1.15;;;5.80;99.90;;;;;;5073800;28;20249;-45
2023/01/16 01:00:20;;;;;;;3.35;0.77;;;5.70;99.90;;;;;;5073768;28;20237;-45
2023/01/16 01:02:50;;;;;;;4.47;1.25;;;5.70;99.90;;;;;;5073301;28;20209;-44
2023/01/16 01:05:17;;;;;;;5.40;1.35;;;5.70;99.90;;;;;;5073622;28;20749;-45
2023/01/16 01:07:43;;;;;;;3.92;1.50;;;5.70;99.90;;;;;;5073740;28;20513;-45
2023/01/16 01:10:09;;;;;;;1.38;0.63;;;5.70;99.90;;;;;;5073527;28;20232;-45
2023/01/16 01:12:35;;;;;;;1.83;1.17;;;5.70;99.90;;;;;;5073556;28;20249;-45
2023/01/16 01:15:01;;;;;;;2.05;1.08;;;5.80;99.90;;;;;;5073845;28;20718;-45
2023/01/16 01:17:27;;;;;;;1.98;0.85;;;5.80;99.90;;;;;;5073531;28;20166;-45
2023/01/16 01:19:52;;;;;;;4.78;0.90;;;5.80;99.90;;;;;;5073348;28;20509;-45
2023/01/16 01:22:18;;;;;;;3.60;0.98;;;5.80;99.90;;;;;;5073284;28;20162;-45
2023/01/16 01:24:48;;;;;;;6.85;1.10;;;5.80;99.90;;;;;;5073514;28;20170;-45
2023/01/16 01:27:14;;;;;;;2.72;0.98;;;5.80;99.90;;;;;;5073132;28;20687;-45
2023/01/16 01:29:39;;;;;;;3.28;1.27;;;5.70;99.90;;;;;;5073241;28;20166;-45
2023/01/16 01:32:05;;;;;;;2.08;0.82;;;5.80;99.90;;;;;;5073161;28;20170;-45
2023/01/16 01:34:33;;;;;;;4.65;0.90;;;5.70;99.90;;;;;;5073392;28;20202;-45
2023/01/16 01:37:03;;;;;;;6.32;1.70;;;5.70;99.90;;;;;;5073680;28;20173;-45
2023/01/16 01:39:29;;;;;;;5.40;2.97;;;5.70;99.90;;;;;;5073569;28;20201;-45
2023/01/16 01:42:41;;;;;;;5.82;1.73;;;5.70;99.90;;;;;;5072882;28;20170;-45
2023/01/16 01:44:49;;;;;;;7.10;2.28;;;5.70;99.90;;;;;;5072628;28;20192;-45
2023/01/16 01:47:16;;;;;;;10.45;2.83;;;5.80;99.90;;;;;;5072998;28;20172;-45
2023/01/16 01:49:42;;;;;;;3.17;1.90;;;5.80;99.90;;;;;;5072824;28;20158;-46
2023/01/16 01:52:08;;;;;;;1.45;0.90;;;5.80;99.90;;;;;;5072700;28;20261;-45
2023/01/16 01:54:48;;;;;;;3.92;1.25;;;5.70;99.90;;;;;;5072847;28;20275;-45
2023/01/16 01:57:23;;;;;;;3.85;1.00;;;5.70;99.90;;;;;;5072631;28;20649;-45
2023/01/16 02:00:06;;;;;;;3.60;1.38;;;5.70;99.90;;;;;;5072856;28;20527;-45
2023/01/16 02:02:36;;;;;;;2.20;0.90;;;5.60;99.90;;;;;;5072393;28;20267;-45
2023/01/16 02:05:06;;;;;;;1.58;0.90;;;5.60;99.90;;;;;;5072874;28;20220;-45
2023/01/16 02:07:32;;;;;;;1.65;0.90;;;5.60;99.90;;;;;;5071135;28;20294;-45
2023/01/16 02:10:42;;;;;;;2.72;1.05;;;5.60;99.90;;;;;;5072951;28;20170;-45
2023/01/16 02:13:08;;;;;;;0.90;0.77;;;5.60;99.90;;;;;;5056415;28;20237;-45
2023/01/16 02:15:34;;;;;;;3.15;0.90;;;5.60;99.90;;;;;;5072273;28;20197;-45
2023/01/16 02:21:12;;;;;;;1.67;0.80;;;5.50;99.90;;;;;;5072558;28;20538;-45
2023/01/16 02:24:10;;;;;;;1.67;0.85;;;5.50;99.90;;;;;;5072268;28;20510;-45
2023/01/16 02:27:16;;;;;;;0.93;0.80;;;5.50;99.90;;;;;;5071188;28;20170;-46
2023/01/16 02:30:13;;;;;;;0.70;0.60;;;5.40;99.90;;;;;;5050710;28;20170;-45
2023/01/16 02:33:13;;;;;;;1.63;0.60;;;5.30;99.90;;;;;;5071983;28;20161;-45
2023/01/16 02:35:51;;;;;;;2.85;0.57;;;5.30;99.90;;;;;;5058490;28;20182;-46
2023/01/16 02:38:32;;;;;;;0.50;0.47;;;5.20;99.90;;;;;;5071981;28;20560;-45
2023/01/16 02:41:09;;;;;;;1.75;0.47;;;5.20;99.90;;;;;;5072582;28;20250;-45
2023/01/16 02:43:46;;;;;;;1.20;0.50;;;5.10;99.90;;;;;;5071953;28;20166;-45
2023/01/16 02:46:25;;;;;;;0.73;0.28;;;5.00;99.90;;;;;;5071988;28;20248;-45
2023/01/16 02:49:15;;;;;;;0.13;0.13;;;5.00;99.90;;;;;;5071752;28;20165;-45
2023/01/16 02:52:13;;;;;;;0.82;0.55;;;5.00;99.90;;;;;;5072069;28;20178;-45
2023/01/16 02:54:52;;;;;;;0.40;0.40;;;5.00;99.90;;;;;;5071752;28;20193;-45
2023/01/16 02:57:19;;;;;;;0.50;0.40;;;5.00;99.90;;;;;;5070412;28;20215;-45
2023/01/16 02:59:45;;;;;;;0.47;0.47;;;5.00;99.90;;;;;;5071724;28;20169;-45
2023/01/16 03:02:11;;;;;;;0.20;0.20;;;5.00;99.90;;;;;;5071533;28;20170;-45
2023/01/16 03:04:42;;;;;;;0.20;0.20;;;5.00;99.90;;;;;;5071704;28;20275;-45
2023/01/16 03:07:45;;;;;;;1.15;0.65;;;5.00;99.90;;;;;;5071865;28;20249;-45
2023/01/16 03:10:36;;;;;;;0.65;0.65;;;5.00;99.90;;;;;;5071919;28;20213;-45
2023/01/16 03:13:22;;;;;;;1.65;0.40;;;4.90;99.90;;;;;;5071575;28;20201;-45
2023/01/16 03:15:50;;;;;;;2.72;0.45;;;4.90;99.90;;;;;;5071573;28;20692;-45
2023/01/16 03:18:32;;;;;;;0.68;0.40;;;4.90;99.90;;;;;;5071516;28;20215;-45
2023/01/16 03:21:12;;;;;;;0.75;0.57;;;4.80;99.90;;;;;;5071878;28;20166;-45
2023/01/16 03:23:53;;;;;;;1.33;0.50;;;4.90;99.90;;;;;;5071691;28;20166;-45
2023/01/16 03:26:39;;;;;;;0.75;0.35;;;4.90;99.90;;;;;;5071767;28;20193;-45
2023/01/16 03:29:30;;;;;;;0.80;0.30;;;4.90;99.90;;;;;;5071490;28;20169;-45
2023/01/16 03:32:44;;;;;;;1.67;0.60;;;4.90;99.90;;;;;;5070930;28;20265;-45
2023/01/16 03:35:25;;;;;;;0.45;0.40;;;4.90;99.90;;;;;;5009612;28;20180;-45
2023/01/16 03:37:55;;;;;;;0.40;0.30;;;4.90;99.90;;;;;;5064840;28;20182;-45
2023/01/16 03:40:27;;;;;;;0.90;0.50;;;4.80;99.90;;;;;;5071321;28;20622;-45
2023/01/16 03:43:01;;;;;;;0.75;0.47;;;4.90;99.90;;;;;;5071314;28;20162;-45
2023/01/16 03:45:51;;;;;;;0.65;0.60;;;5.00;99.90;;;;;;5071613;28;20162;-45
2023/01/16 03:48:36;;;;;;;2.28;0.80;;;5.00;99.90;;;;;;5072984;28;20170;-45
2023/01/16 03:51:07;;;;;;;0.70;0.65;;;4.90;99.90;;;;;;5075064;28;20166;-45
2023/01/16 03:53:38;;;;;;;0.68;0.60;;;4.80;99.90;;;;;;5074939;28;20198;-45
2023/01/16 03:56:23;;;;;;;1.50;0.57;;;5.00;99.90;;;;;;5074909;28;20253;-45
2023/01/16 03:58:51;;;;;;;3.05;0.63;;;5.00;99.90;;;;;;5074919;28;20166;-45
2023/01/16 04:01:34;;;;;;;0.30;0.30;;;5.00;99.90;;;;;;5075119;28;20217;-45
2023/01/16 04:04:05;;;;;;;1.33;0.60;;;4.90;99.90;;;;;;5075042;28;20721;-45
2023/01/16 04:06:53;;;;;;;1.48;1.25;;;4.90;99.90;;;;;;5075134;28;20204;-45
2023/01/16 04:09:33;;;;;;;2.17;1.60;;;4.80;99.90;;;;;;5074953;28;20524;-45
2023/01/16 04:12:02;;;;;;;4.82;1.90;;;4.80;99.90;;;;;;5075180;28;20527;-45
2023/01/16 04:14:30;;;;;;;6.15;2.33;;;4.90;99.90;;;;;;5075181;28;20209;-45
2023/01/16 04:16:57;;;;;;;4.10;1.98;;;4.90;99.90;;;;;;5074514;28;20629;-45
2023/01/16 04:19:25;;;;;;;6.35;1.40;;;4.80;99.90;;;;;;5074518;28;20622;-45
2023/01/16 04:21:50;;;;;;;5.47;2.08;;;4.90;99.90;;;;;;5074513;28;20204;-45
2023/01/16 04:24:16;;;;;;;3.10;1.65;;;4.80;99.90;;;;;;5074470;28;20174;-45
2023/01/16 04:26:42;;;;;;;4.85;2.03;;;4.80;99.90;;;;;;5073210;28;20216;-45
2023/01/16 04:29:07;;;;;;;3.28;1.73;;;4.90;99.90;;;;;;5074385;28;20215;-45
2023/01/16 04:31:33;;;;;;;2.78;1.50;;;4.80;99.90;;;;;;5074345;28;20181;-45
2023/01/16 04:33:59;;;;;;;1.90;1.20;;;4.90;99.90;;;;;;5074571;28;20209;-45
2023/01/16 04:36:25;;;;;;;3.40;1.10;;;4.80;99.90;;;;;;5074226;28;20166;-45
2023/01/16 04:38:50;;;;;;;1.05;0.98;;;4.70;99.90;;;;;;5074070;28;21010;-45
2023/01/16 04:41:35;;;;;;;3.40;1.40;;;4.70;99.90;;;;;;5073963;28;20177;-45
2023/01/16 04:44:01;;;;;;;6.05;1.20;;;4.80;99.90;;;;;;5074767;28;20275;-45
2023/01/16 04:46:27;;;;;;;2.25;1.00;;;4.70;99.90;;;;;;5074419;28;20252;-45
2023/01/16 04:48:53;;;;;;;2.13;1.20;;;4.90;99.90;;;;;;5074068;28;20245;-45
2023/01/16 04:51:18;;;;;;;3.30;1.50;;;4.80;99.90;;;;;;5073877;28;20174;-45
2023/01/16 04:53:44;;;;;;;3.92;1.60;;;4.90;99.90;;;;;;5073828;28;20217;-45
2023/01/16 04:56:09;;;;;;;2.47;1.15;;;4.80;99.90;;;;;;5073864;28;20173;-45
2023/01/16 04:58:35;;;;;;;5.43;2.00;;;4.80;99.90;;;;;;5073532;28;20170;-45
2023/01/16 05:01:00;;;;;;;1.85;1.13;;;4.80;99.90;;;;;;5074212;28;20170;-45
2023/01/16 05:03:26;;;;;;;2.25;1.20;;;4.90;99.90;;;;;;5073950;28;20677;-45
2023/01/16 05:05:51;;;;;;;5.35;1.60;;;5.00;99.90;;;;;;5073718;28;20170;-45
2023/01/16 05:08:17;;;;;;;4.05;1.33;;;4.90;99.90;;;;;;5073665;28;20223;-45
2023/01/16 05:10:43;;;;;;;6.10;1.27;;;4.90;99.90;;;;;;5073503;28;20218;-45
2023/01/16 05:13:08;;;;;;;4.47;1.55;;;5.00;99.90;;;;;;5073455;28;20209;-45
2023/01/16 05:15:34;;;;;;;1.63;1.10;;;5.10;99.90;;;;;;5073480;28;20528;-45
2023/01/16 05:17:59;;;;;;;4.50;1.20;;;5.10;99.90;;;;;;5073826;28;20626;-45
2023/01/16 05:20:25;;;;;;;2.97;1.08;;;5.10;99.90;;;;;;5073408;28;20703;-45
2023/01/16 05:22:50;;;;;;;2.00;0.80;;;5.00;99.90;;;;;;5073358;28;20261;-45
2023/01/16 05:25:16;;;;;;;2.00;1.00;;;5.00;99.90;;;;;;5073357;28;20556;-45
2023/01/16 05:27:42;;;;;;;2.45;1.20;;;5.10;99.90;;;;;;5073252;28;20165;-45
2023/01/16 05:30:08;;;;;;;4.50;1.48;;;5.00;99.90;;;;;;5073434;28;20526;-45
2023/01/16 05:32:33;;;;;;;2.90;1.20;;;5.00;99.90;;;;;;5073259;28;20219;-45
2023/01/16 05:35:01;;;;;;;4.03;1.23;;;5.00;99.90;;;;;;5073448;28;20572;-46
2023/01/16 05:37:28;;;;;;;2.83;1.25;;;5.00;99.90;;;;;;5073635;28;20173;-45
2023/01/16 05:39:56;;;;;;;4.43;1.23;;;5.10;99.90;;;;;;5073251;28;20178;-45
2023/01/16 05:42:24;;;;;;;3.40;1.10;;;5.10;99.90;;;;;;5072954;28;20689;-45
2023/01/16 05:44:51;;;;;;;1.98;0.95;;;5.10;99.90;;;;;;5072794;28;20162;-45
2023/01/16 05:47:18;;;;;;;2.45;0.90;;;5.20;99.90;;;;;;5072342;28;20174;-45
2023/01/16 05:49:44;;;;;;;3.60;1.23;;;5.20;99.90;;;;;;5072541;28;20166;-46
2023/01/16 05:52:09;;;;;;;2.65;1.17;;;5.20;99.90;;;;;;5072770;28;20178;-45
2023/01/16 05:54:35;;;;;;;1.45;0.80;;;5.20;99.90;;;;;;5072788;28;20233;-45
2023/01/16 05:57:01;;;;;;;1.67;1.00;;;5.20;99.90;;;;;;5072825;28;20185;-45
2023/01/16 05:59:26;;;;;;;2.70;0.98;;;5.20;99.90;;;;;;5073002;28;20166;-45
2023/01/16 06:01:52;;;;;;;3.22;1.08;;;5.30;99.90;;;;;;5072699;28;20194;-46
2023/01/16 06:04:19;;;;;;;5.05;1.20;;;5.20;99.90;;;;;;5072183;28;20621;-46
2023/01/16 06:06:45;;;;;;;1.75;0.85;;;5.30;99.90;;;;;;5072819;28;20201;-46
2023/01/16 06:09:11;;;;;;;4.35;1.00;;;5.30;99.90;;;;;;5071178;28;20170;-45
2023/01/16 06:11:36;;;;;;;2.60;1.02;;;5.30;99.90;;;;;;5071649;28;20644;-46
2023/01/16 06:14:04;;;;;;;2.45;1.23;;;5.30;99.90;;;;;;5071687;28;20262;-46
2023/01/16 06:16:30;;;;;;;3.17;1.15;;;5.40;99.90;;;;;;5072492;28;20162;-46
2023/01/16 06:18:56;;;;;;;1.85;1.42;;;5.40;99.90;;;;;;5072699;28;20162;-46
2023/01/16 06:21:21;;;;;;;3.58;1.10;;;5.30;99.90;;;;;;5072245;28;20166;-46
2023/01/16 06:23:47;;;;;;;3.60;0.90;;;5.40;99.90;;;;;;5072208;28;20166;-45
2023/01/16 06:26:12;;;;;;;2.42;0.77;;;5.40;99.90;;;;;;5072126;28;20192;-46
2023/01/16 06:28:38;;;;;;;1.27;1.00;;;5.40;99.90;;;;;;5072266;28;20622;-45
2023/01/16 06:31:05;;;;;;;1.15;0.90;;;5.50;99.90;;;;;;5072085;28;20176;-46
2023/01/16 06:33:31;;;;;;;1.38;0.88;;;5.50;99.90;;;;;;5071922;28;20197;-45
2023/01/16 06:35:56;;;;;;;5.20;1.13;;;5.50;99.90;;;;;;5072174;28;20618;-45
2023/01/16 06:38:22;;;;;;;3.88;0.80;;;5.50;99.90;;;;;;5071823;28;20166;-45
2023/01/16 06:40:48;;;;;;;5.45;1.20;;;5.40;99.90;;;;;;5071792;28;20174;-45
2023/01/16 06:43:16;;;;;;;3.55;0.80;;;5.50;99.90;;;;;;5071927;28;20231;-45
2023/01/16 06:45:42;;;;;;;1.17;0.88;;;5.40;99.90;;;;;;5072000;28;20181;-46
2023/01/16 06:48:07;;;;;;;2.25;0.80;;;5.50;99.90;;;;;;5071633;28;20174;-46
2023/01/16 06:50:33;;;;;;;2.15;1.05;;;5.50;99.90;;;;;;5071840;28;20189;-45
2023/01/16 06:52:59;;;;;;;3.70;0.90;;;5.50;99.90;;;;;;5072052;28;20197;-46
2023/01/16 06:55:24;;;;;;;5.30;1.20;;;5.50;99.90;;;;;;5071705;28;20162;-45
2023/01/16 06:57:50;;;;;;;2.35;0.75;;;5.50;99.90;;;;;;5071727;28;20597;-45
2023/01/16 07:00:16;;;;;;;1.27;1.00;;;5.60;99.90;;;;;;5071674;28;20170;-45
2023/01/16 07:02:42;;;;;;;2.03;0.95;;;5.50;99.90;;;;;;5070123;28;20224;-46
2023/01/16 07:05:10;;;;;;;1.00;0.90;;;5.50;99.90;;;;;;5071656;28;20196;-45
2023/01/16 07:07:36;;;;;;;4.22;1.00;;;5.60;99.90;;;;;;5071701;28;20166;-46
2023/01/16 07:10:03;;;;;;;1.33;0.85;;;5.50;99.90;;;;;;5071717;28;20533;-45
2023/01/16 07:12:29;;;;;;;3.17;1.10;;;5.60;99.90;;;;;;5071829;28;20169;-45
2023/01/16 07:23:23;;;;;;;4.25;1.40;;;5.60;99.90;;;;;;5074920;28;20181;-46
2023/01/16 07:25:50;;;;;;;4.25;1.25;;;5.50;99.90;;;;;;5075607;28;20166;-46
2023/01/16 07:28:17;;;;;;;4.20;1.40;;;5.60;99.90;;;;;;5074249;28;20173;-50
2023/01/16 07:30:43;;;;;;;2.42;1.50;;;5.60;99.90;;;;;;5060631;28;20638;-47
2023/01/16 07:33:09;;;;;;;3.28;1.42;;;5.60;99.90;;;;;;5053538;28;20204;-44
2023/01/16 07:35:36;;;;;;;1.27;1.15;;;5.60;99.90;;;;;;5067778;28;20260;-46
2023/01/16 07:38:02;;;;;;;3.13;1.67;;;5.60;99.90;;;;;;5073660;28;20162;-46
2023/01/16 07:40:27;;;;;;;7.07;2.05;;;5.60;99.90;;;;;;5073887;28;20169;-46
2023/01/16 07:42:53;;;;;;;3.10;1.77;;;5.50;99.90;;;;;;5073455;28;20250;-45
2023/01/16 07:45:19;;;;;;;6.20;1.70;;;5.50;99.90;;;;;;5073532;28;20193;-47
2023/01/16 07:47:44;;;;;;;2.63;1.35;;;5.60;99.90;;;;;;5073449;28;20177;-46
2023/01/16 07:50:10;;;;;;;6.80;1.60;;;5.50;99.90;;;;;;5073477;28;20507;-46
2023/01/16 07:52:35;;;;;;;4.18;1.60;;;5.60;99.90;;;;;;5073244;28;20227;-45
2023/01/16 07:55:01;;;;;;;5.40;2.58;;;5.50;99.90;;;;;;5073294;28;20235;-45
2023/01/16 07:57:27;;;;;;;4.82;1.70;;;5.60;99.90;;;;;;5073890;28;20201;-45
2023/01/16 07:59:53;;;;;;;4.10;2.08;;;5.50;99.90;;;;;;5073141;28;20171;-45
2023/01/16 08:02:19;;;;;;;3.70;1.55;;;5.50;99.90;;;;;;5073016;28;20169;-45
2023/01/16 08:04:44;;;;;;;3.28;1.50;;;5.40;99.90;;;;;;5073444;28;20646;-47
2023/01/16 08:07:10;;;;;;;2.92;1.67;;;5.50;99.90;;;;;;5073019;28;20543;-46
2023/01/16 08:09:35;;;;;;;4.57;1.77;;;5.50;99.90;;;;;;5072967;28;20529;-46
2023/01/16 08:12:01;;;;;;;3.45;1.25;;;5.40;99.90;;;;;;5072980;28;20182;-45
2023/01/16 08:14:26;;;;;;;3.40;1.38;;;5.50;99.90;;;;;;5073184;28;20282;-44
2023/01/16 08:16:52;;;;;;;2.08;1.67;;;5.40;99.90;;;;;;5072863;28;20170;-47
2023/01/16 08:19:18;;;;;;;7.50;1.50;;;5.40;99.90;;;;;;5072848;28;20174;-46
2023/01/16 08:21:43;;;;;;;4.35;1.50;;;5.40;99.90;;;;;;5072813;28;20158;-46
2023/01/16 08:24:09;;;;;;;6.90;1.73;;;5.40;99.90;;;;;;5072698;28;20174;-46
2023/01/16 08:26:35;;;;;;;2.55;1.60;;;5.40;99.90;;;;;;5072878;28;20197;-46
2023/01/16 08:29:02;;;;;;;2.40;1.20;;;5.40;99.90;;;;;;5072814;28;20170;-46
2023/01/16 08:31:28;;;;;;;3.38;1.08;;;5.40;99.90;;;;;;5072916;28;20158;-45
2023/01/16 08:33:53;;;;;;;4.93;1.10;;;5.40;99.90;;;;;;5070311;28;20204;-45
2023/01/16 08:36:20;;;;;;;2.97;1.20;;;5.40;99.90;;;;;;5072647;28;20162;-45
2023/01/16 08:38:47;;;;;;;2.63;1.20;;;5.40;99.90;;;;;;5072483;28;20166;-45
2023/01/16 08:52:15;;;;;;;3.05;1.15;;;5.40;99.90;;;;;;5072457;28;20177;-47
2023/01/16 08:54:40;;;;;;;2.58;0.90;;;5.40;99.90;;;;;;5072005;28;20202;-46
2023/01/16 08:57:06;;;;;;;1.75;1.00;;;5.40;99.90;;;;;;5072579;28;20529;-46
2023/01/16 08:59:33;;;;;;;3.15;1.52;;;5.40;99.90;;;;;;5071913;28;20633;-47
2023/01/16 09:02:04;;;;;;;4.35;1.55;;;5.50;99.90;;;;;;5072357;28;20249;-47
2023/01/16 09:04:29;;;;;;;1.38;1.05;;;5.40;99.90;;;;;;5072305;28;20268;-46
2023/01/16 09:06:55;;;;;;;4.05;1.50;;;5.50;99.90;;;;;;5072535;28;20248;-48
2023/01/16 09:09:21;;;;;;;4.30;2.13;;;5.40;99.90;;;;;;5072205;28;20642;-48
2023/01/16 09:14:36;;;;;;;3.63;0.93;;;5.40;99.90;;;;;;5071671;28;20232;-47
2023/01/16 09:17:02;;;;;;;6.75;1.88;;;5.30;99.90;;;;;;5071750;28;20217;-47
2023/01/16 09:19:27;;;;;;;0.98;0.90;;;5.40;99.90;;;;;;5072025;28;20213;-48
2023/01/16 09:21:53;;;;;;;1.75;0.98;;;5.30;99.90;;;;;;5072093;28;20173;-47
2023/01/16 09:24:18;;;;;;;4.00;1.02;;;5.40;99.90;;;;;;5073253;28;20185;-47
2023/01/16 09:26:44;;;;;;;3.63;1.27;;;5.40;99.90;;;;;;5073344;28;20253;-47
2023/01/16 09:29:09;;;;;;;7.18;1.23;;;5.30;99.90;;;;;;5073236;28;20164;-47
2023/01/16 09:31:35;;;;;;;1.33;0.98;;;5.40;99.90;;;;;;5073255;28;20529;-49
2023/01/16 09:34:00;;;;;;;2.92;1.45;;;5.30;99.90;;;;;;5073105;28;20288;-46
2023/01/16 09:36:26;;;;;;;1.50;0.60;;;5.40;99.90;;;;;;5073569;28;20537;-47
2023/01/16 09:38:53;;;;;;;2.42;1.08;;;5.30;99.90;;;;;;5073369;28;20178;-47
2023/01/16 09:44:08;;;;;;;2.05;0.80;;;5.40;99.90;;;;;;5073000;28;20261;-48
2023/01/16 09:46:42;;;;;;;2.22;1.02;;;5.40;99.90;;;;;;5071876;28;20189;-49
2023/01/16 09:49:31;;;;;;;1.23;1.10;;;5.30;99.90;;;;;;5072938;28;20501;-47
2023/01/16 10:00:24;;;;;;;2.08;0.90;;;5.40;99.90;;;;;;5072927;28;20563;-46
2023/01/16 10:02:49;;;;;;;2.10;0.70;;;5.40;99.90;;;;;;5072492;28;20289;-46
2023/01/16 10:05:17;;;;;;;2.30;1.30;;;5.40;99.90;;;;;;5072608;28;20722;-46
2023/01/16 10:08:09;;;;;;;2.45;1.20;;;5.40;99.90;;;;;;5072574;28;20245;-46
2023/01/16 10:10:43;;;;;;;3.40;1.10;;;5.50;99.90;;;;;;5072539;28;20246;-46
2023/01/16 10:13:08;;;;;;;1.98;1.17;;;5.40;99.90;;;;;;5072562;28;20202;-46
2023/01/16 10:15:42;;;;;;;3.35;1.15;;;5.50;99.90;;;;;;5072426;28;20790;-46
2023/01/16 10:18:41;;;;;;;3.35;0.90;;;5.60;99.90;;;;;;5072298;28;20169;-46
2023/01/16 10:21:37;;;;;;;2.97;1.30;;;5.60;99.90;;;;;;5072239;28;20248;-46
2023/01/16 10:24:20;;;;;;;2.25;0.93;;;5.60;99.90;;;;;;5072199;28;20589;-46
2023/01/16 10:26:46;;;;;;;2.00;1.00;;;5.70;99.90;;;;;;5072157;28;20158;-46
2023/01/16 10:29:33;;;;;;;2.78;1.30;;;5.60;99.90;;;;;;5070897;28;20166;-46
2023/01/16 10:32:06;;;;;;;1.55;1.13;;;5.60;99.90;;;;;;5072706;28;20346;-46
2023/01/16 10:34:47;;;;;;;2.03;1.33;;;5.70;99.90;;;;;;5072018;28;20198;-45
2023/01/16 10:37:13;;;;;;;2.08;1.15;;;5.70;99.90;;;;;;5070937;28;20161;-46
2023/01/16 10:39:39;;;;;;;1.50;0.93;;;5.80;99.90;;;;;;5070692;28;20262;-46
2023/01/16 10:50:42;;;;;;;10.43;5.07;;;5.90;99.90;;;;;;5071945;28;20656;-46
2023/01/16 10:53:11;;;;;;;4.20;2.47;;;6.00;99.90;;;;;;5071724;28;20236;-46
2023/01/16 10:55:42;;;;;;;5.28;3.75;;;6.10;99.90;;;;;;5071741;28;20170;-46
2023/01/16 10:58:23;;;;;;;21.20;9.80;;;6.10;99.90;;;;;;5071730;28;20162;-46
2023/01/16 11:00:50;;;;;;;18.20;10.77;;;6.30;99.90;;;;;;5071785;28;20170;-46
2023/01/16 11:03:27;;;;;;;3.30;2.50;;;6.40;99.90;;;;;;5071590;28;20217;-45
2023/01/16 11:06:05;;;;;;;2.10;1.48;;;6.40;99.90;;;;;;5071656;28;20170;-46
2023/01/16 11:08:34;;;;;;;1.88;1.33;;;6.30;99.90;;;;;;5071651;28;20637;-46
2023/01/16 11:11:00;;;;;;;9.13;6.85;;;6.30;99.90;;;;;;5071631;28;20182;-46
2023/01/16 11:19:14;;;;;;;2.58;1.40;;;6.20;99.90;;;;;;5071883;28;20223;-45
2023/01/16 11:21:43;;;;;;;1.25;1.15;;;6.20;99.90;;;;;;5071270;28;20177;-45
2023/01/16 11:24:20;;;;;;;8.82;6.15;;;6.20;99.90;;;;;;5071537;28;20300;-46
2023/01/16 11:26:52;;;;;;;3.20;1.50;;;6.20;99.90;;;;;;5071249;28;20173;-46
2023/01/16 11:29:20;;;;;;;2.55;1.70;;;6.30;99.90;;;;;;5071295;28;20177;-46
2023/01/16 11:31:54;;;;;;;2.13;1.25;;;6.20;99.90;;;;;;5071150;28;20173;-46
2023/01/16 11:34:25;;;;;;;2.70;2.00;;;6.30;99.90;;;;;;5071696;28;20201;-45
2023/01/16 11:36:53;;;;;;;2.25;1.60;;;6.40;99.90;;;;;;5071186;28;20169;-46
2023/01/16 11:39:21;;;;;;;3.97;1.92;;;6.50;99.90;;;;;;5071233;28;20633;-46
2023/01/16 11:41:51;;;;;;;2.03;0.90;;;6.60;99.90;;;;;;5070951;28;20572;-46
2023/01/16 11:47:17;;;;;;;7.55;3.95;;;6.50;99.90;;;;;;5071461;28;20576;-47
2023/01/16 11:49:48;;;;;;;4.07;1.63;;;6.60;99.90;;;;;;5071278;28;20193;-47
2023/01/16 11:52:26;;;;;;;2.45;1.10;;;6.60;99.90;;;;;;5070964;28;20711;-46
2023/01/16 11:54:54;;;;;;;6.53;3.00;;;6.40;99.90;;;;;;5071115;28;20209;-47
2023/01/16 11:57:29;;;;;;;12.35;6.13;;;6.30;99.90;;;;;;5071199;28;20173;-47
2023/01/16 12:00:21;;;;;;;1.23;1.13;;;6.30;99.90;;;;;;5071244;28;20172;-47
2023/01/16 12:03:16;;;;;;;32.75;16.92;;;6.20;99.90;;;;;;5055090;28;20289;-46
2023/01/16 12:06:03;;;;;;;4.15;2.35;;;6.20;99.90;;;;;;5071127;28;20619;-48
2023/01/16 12:08:51;;;;;;;1.58;1.45;;;6.20;99.90;;;;;;5071829;28;20166;-47
2023/01/16 12:11:41;;;;;;;2.13;1.42;;;6.10;99.90;;;;;;5074279;28;20166;-46
2023/01/16 12:14:49;;;;;;;4.13;1.30;;;6.20;99.90;;;;;;5074626;28;20206;-46
2023/01/16 12:17:39;;;;;;;1.98;1.20;;;6.10;99.90;;;;;;5032550;28;20175;-50
2023/01/16 12:20:10;;;;;;;3.65;2.22;;;6.10;99.90;;;;;;5032455;28;20179;-49
2023/01/16 12:22:57;;;;;;;5.70;2.13;;;6.10;99.90;;;;;;5061787;28;20182;-47
2023/01/16 12:25:45;;;;;;;3.30;1.27;;;6.10;99.90;;;;;;5074112;28;20170;-46
2023/01/16 12:28:28;;;;;;;1.83;1.38;;;6.10;99.90;;;;;;5073919;28;20168;-47
2023/01/16 12:31:15;;;;;;;5.97;3.15;;;6.10;99.90;;;;;;5074546;28;20209;-49
2023/01/16 12:33:48;;;;;;;2.65;1.33;;;6.10;99.90;;;;;;5074223;28;20204;-44
2023/01/16 12:36:28;;;;;;;3.65;1.58;;;6.20;99.90;;;;;;5074368;28;20644;-48
2023/01/16 12:39:23;;;;;;;2.47;1.83;;;5.70;99.90;;;;;;5074609;28;20641;-46
2023/01/16 12:44:52;;;;;;;3.08;2.30;;;6.10;99.90;;;;;;5074273;28;20200;-46
2023/01/16 12:47:36;;;;;;;3.63;2.80;;;6.10;99.90;;;;;;5074190;28;20166;-46
2023/01/16 12:50:35;;;;;;;1.55;1.17;;;6.10;99.90;;;;;;5074029;28;20652;-47
2023/01/16 12:53:19;;;;;;;1.85;1.67;;;6.00;99.90;;;;;;5074183;28;20176;-49
2023/01/16 12:56:10;;;;;;;1.00;0.50;;;6.10;99.90;;;;;;5073976;28;20704;-46
2023/01/16 12:58:41;;;;;;;1.58;1.40;;;6.00;99.90;;;;;;5074153;28;20181;-46
2023/01/16 13:01:18;;;;;;;0.93;0.82;;;5.90;99.90;;;;;;5073831;28;20253;-47
2023/01/16 13:03:49;;;;;;;1.85;0.95;;;6.00;99.90;;;;;;5073781;28;20205;-46
2023/01/16 13:06:34;;;;;;;1.58;1.48;;;6.00;99.90;;;;;;5073752;28;20158;-46
2023/01/16 13:09:07;;;;;;;1.23;0.93;;;6.10;99.90;;;;;;5074004;28;20169;-47
2023/01/16 13:14:27;;;;;;;1.65;0.85;;;6.00;99.90;;;;;;5073906;28;20245;-45
2023/01/16 13:16:59;;;;;;;1.98;1.38;;;6.10;99.90;;;;;;5073612;28;20630;-45
2023/01/16 13:19:29;;;;;;;2.35;1.48;;;6.10;99.90;;;;;;5073756;28;20166;-45
2023/01/16 13:21:58;;;;;;;1.20;0.93;;;6.20;99.90;;;;;;5073743;28;20220;-48
2023/01/16 13:24:29;;;;;;;2.70;2.45;;;6.20;99.90;;;;;;5072480;28;20541;-46
2023/01/16 13:27:03;;;;;;;1.10;1.05;;;6.30;99.90;;;;;;5072701;28;20622;-48
2023/01/16 13:29:37;;;;;;;2.80;2.22;;;6.30;99.90;;;;;;5073517;28;20622;-48
2023/01/16 13:32:15;;;;;;;4.93;3.88;;;6.30;99.90;;;;;;5072915;28;20651;-47
2023/01/16 13:34:46;;;;;;;2.30;2.03;;;6.20;99.90;;;;;;5072638;28;20205;-48
2023/01/16 13:37:17;;;;;;;2.60;2.00;;;6.20;99.90;;;;;;5073145;28;20165;-47
2023/01/16 13:40:08;;;;;;;1.75;1.20;;;6.20;99.90;;;;;;5072500;28;20174;-47
2023/01/16 13:42:37;;;;;;;1.77;1.65;;;6.20;99.90;;;;;;5072521;28;20245;-48
2023/01/16 13:48:00;;;;;;;3.45;1.20;;;6.20;99.90;;;;;;5072754;28;20255;-47
2023/01/16 13:50:35;;;;;;;2.83;1.30;;;6.20;99.90;;;;;;5072886;28;20163;-47
2023/01/16 13:53:04;;;;;;;1.38;1.05;;;6.10;99.90;;;;;;5072852;28;20176;-46
2023/01/16 13:55:35;;;;;;;2.58;1.63;;;6.10;99.90;;;;;;5072269;28;20219;-45
2023/01/16 13:58:20;;;;;;;1.38;1.27;;;6.10;99.90;;;;;;5072348;28;20162;-48
2023/01/16 14:00:58;;;;;;;2.28;1.38;;;6.10;99.90;;;;;;5072439;28;20172;-45
2023/01/16 14:03:29;;;;;;;2.92;2.05;;;6.00;99.90;;;;;;5072632;28;20217;-45
2023/01/16 14:06:20;;;;;;;3.20;1.35;;;6.10;99.90;;;;;;5072526;28;20174;-45
2023/01/16 14:09:11;;;;;;;4.60;1.40;;;6.10;99.90;;;;;;5071965;28;20173;-45
2023/01/16 14:11:39;;;;;;;1.55;1.42;;;6.00;99.90;;;;;;5072161;28;20169;-45
2023/01/16 14:17:11;;;;;;;5.35;1.60;;;6.00;99.90;;;;;;5072072;28;20223;-46
2023/01/16 14:19:49;;;;;;;2.75;1.50;;;5.90;99.90;;;;;;5072162;28;20174;-45
2023/01/16 14:24:48;;;;;;;2.08;1.50;;;5.90;99.90;;;;;;5071683;28;20174;-46
2023/01/16 14:27:17;;;;;;;3.85;2.00;;;5.80;99.90;;;;;;5072024;28;20220;-45
2023/01/16 14:29:51;;;;;;;3.53;2.42;;;5.80;99.90;;;;;;5070683;28;20567;-45